sensor_id;sensor_type;location;lat;lon;timestamp;pressure;altitude;pressure_sealevel;temperature;humidity
21869;BME280;11099;41.564;23.296;2022-09-09T00:00:17;97840.81;;;21.59;87.01
21869;BME280;11099;41.564;23.296;2022-09-09T00:02:49;97849.66;;;20.96;90.60
21869;BME280;11099;41.564;23.296;2022-09-09T00:05:28;97846.25;;;20.72;92.63
21869;BME280;11099;41.564;23.296;2022-09-09T00:07:59;97879.59;;;21.07;91.40
21869;BME280;11099;41.564;23.296;2022-09-09T00:10:39;97860.25;;;21.35;90.31
21869;BME280;11099;41.564;23.296;2022-09-09T00:13:19;97859.16;;;21.39;90.39
21869;BME280;11099;41.564;23.296;2022-09-09T00:18:25;97854.00;;;21.00;92.24
21869;BME280;11099;41.564;23.296;2022-09-09T00:23:42;97854.53;;;21.73;88.71
21869;BME280;11099;41.564;23.296;2022-09-09T00:29:03;97801.66;;;21.90;85.75
21869;BME280;11099;41.564;23.296;2022-09-09T00:31:31;97810.16;;;21.51;87.73
21869;BME280;11099;41.564;23.296;2022-09-09T00:34:22;97812.34;;;21.39;88.86
21869;BME280;11099;41.564;23.296;2022-09-09T00:36:51;97833.56;;;21.33;88.64
21869;BME280;11099;41.564;23.296;2022-09-09T00:52:39;97839.69;;;21.60;87.58
21869;BME280;11099;41.564;23.296;2022-09-09T00:57:44;97771.38;;;21.10;88.08
21869;BME280;11099;41.564;23.296;2022-09-09T01:00:19;97841.72;;;21.70;86.47
21869;BME280;11099;41.564;23.296;2022-09-09T01:07:50;97856.53;;;21.16;89.71
21869;BME280;11099;41.564;23.296;2022-09-09T01:13:33;97847.34;;;21.92;86.52
21869;BME280;11099;41.564;23.296;2022-09-09T01:16:00;97822.59;;;21.56;87.13
21869;BME280;11099;41.564;23.296;2022-09-09T01:18:49;97790.19;;;21.67;86.31
21869;BME280;11099;41.564;23.296;2022-09-09T01:26:41;97858.44;;;21.76;87.49
21869;BME280;11099;41.564;23.296;2022-09-09T01:29:09;97841.22;;;21.98;86.70
21869;BME280;11099;41.564;23.296;2022-09-09T01:34:18;97841.78;;;21.77;87.85
21869;BME280;11099;41.564;23.296;2022-09-09T01:36:59;97828.03;;;21.93;86.45
21869;BME280;11099;41.564;23.296;2022-09-09T01:39:27;97838.75;;;22.23;85.52
21869;BME280;11099;41.564;23.296;2022-09-09T01:41:55;97838.91;;;22.00;85.47
21869;BME280;11099;41.564;23.296;2022-09-09T01:44:21;97777.50;;;21.07;88.03
21869;BME280;11099;41.564;23.296;2022-09-09T01:46:48;97840.81;;;21.59;88.43
21869;BME280;11099;41.564;23.296;2022-09-09T01:49:13;97752.34;;;20.73;89.70
21869;BME280;11099;41.564;23.296;2022-09-09T01:51:41;97785.91;;;20.68;91.99
21869;BME280;11099;41.564;23.296;2022-09-09T01:54:08;97841.94;;;20.98;91.47
21869;BME280;11099;41.564;23.296;2022-09-09T01:59:18;97828.03;;;20.96;92.18
21869;BME280;11099;41.564;23.296;2022-09-09T02:04:44;97778.50;;;20.65;91.56
21869;BME280;11099;41.564;23.296;2022-09-09T02:09:51;97829.47;;;21.20;89.44
21869;BME280;11099;41.564;23.296;2022-09-09T02:12:23;97848.72;;;21.11;90.16
21869;BME280;11099;41.564;23.296;2022-09-09T02:14:55;97779.25;;;20.92;90.14
21869;BME280;11099;41.564;23.296;2022-09-09T02:17:29;97745.50;;;20.52;90.41
21869;BME280;11099;41.564;23.296;2022-09-09T02:20:07;97787.69;;;20.87;90.00
21869;BME280;11099;41.564;23.296;2022-09-09T02:22:35;97758.53;;;20.47;91.31
21869;BME280;11099;41.564;23.296;2022-09-09T02:25:07;97813.88;;;21.10;90.58
21869;BME280;11099;41.564;23.296;2022-09-09T02:27:33;97817.53;;;20.64;92.63
21869;BME280;11099;41.564;23.296;2022-09-09T02:30:00;97798.41;;;20.50;92.05
21869;BME280;11099;41.564;23.296;2022-09-09T02:32:28;97798.91;;;20.59;91.63
21869;BME280;11099;41.564;23.296;2022-09-09T02:35:14;97832.81;;;21.10;90.97
21869;BME280;11099;41.564;23.296;2022-09-09T02:37:42;97792.44;;;20.94;89.90
21869;BME280;11099;41.564;23.296;2022-09-09T02:40:10;97827.19;;;21.52;88.00
21869;BME280;11099;41.564;23.296;2022-09-09T02:42:40;97774.28;;;21.28;87.20
21869;BME280;11099;41.564;23.296;2022-09-09T02:45:07;97811.50;;;21.68;86.05
21869;BME280;11099;41.564;23.296;2022-09-09T02:50:43;97816.09;;;21.64;86.29
21869;BME280;11099;41.564;23.296;2022-09-09T02:53:22;97771.56;;;21.28;85.49
21869;BME280;11099;41.564;23.296;2022-09-09T02:55:58;97738.16;;;20.53;89.04
21869;BME280;11099;41.564;23.296;2022-09-09T02:58:25;97762.31;;;20.42;90.84
21869;BME280;11099;41.564;23.296;2022-09-09T03:00:52;97808.72;;;20.44;93.28
21869;BME280;11099;41.564;23.296;2022-09-09T03:03:19;97796.75;;;20.45;92.28
21869;BME280;11099;41.564;23.296;2022-09-09T03:05:45;97822.47;;;20.85;90.89
21869;BME280;11099;41.564;23.296;2022-09-09T03:08:12;97812.53;;;20.17;94.07
21869;BME280;11099;41.564;23.296;2022-09-09T03:10:38;97804.16;;;20.48;92.71
21869;BME280;11099;41.564;23.296;2022-09-09T03:13:04;97786.75;;;20.76;89.86
21869;BME280;11099;41.564;23.296;2022-09-09T03:15:32;97729.09;;;20.68;88.46
21869;BME280;11099;41.564;23.296;2022-09-09T03:17:59;97695.78;;;20.64;87.56
21869;BME280;11099;41.564;23.296;2022-09-09T03:20:26;97821.69;;;21.45;87.19
21869;BME280;11099;41.564;23.296;2022-09-09T03:22:53;97783.25;;;21.02;88.19
21869;BME280;11099;41.564;23.296;2022-09-09T03:25:19;97832.13;;;20.86;92.08
21869;BME280;11099;41.564;23.296;2022-09-09T03:27:45;97790.25;;;20.00;94.66
21869;BME280;11099;41.564;23.296;2022-09-09T03:30:11;97814.03;;;20.90;92.83
21869;BME280;11099;41.564;23.296;2022-09-09T03:32:36;97782.09;;;20.73;92.09
21869;BME280;11099;41.564;23.296;2022-09-09T03:35:02;97812.34;;;20.82;92.82
21869;BME280;11099;41.564;23.296;2022-09-09T03:37:28;97812.03;;;20.87;91.74
21869;BME280;11099;41.564;23.296;2022-09-09T03:39:53;97780.03;;;20.93;90.67
21869;BME280;11099;41.564;23.296;2022-09-09T03:42:22;97802.31;;;21.13;89.32
21869;BME280;11099;41.564;23.296;2022-09-09T03:44:48;97794.41;;;20.44;92.65
21869;BME280;11099;41.564;23.296;2022-09-09T03:47:19;97820.28;;;20.68;91.97
21869;BME280;11099;41.564;23.296;2022-09-09T03:49:47;97821.69;;;20.58;92.38
21869;BME280;11099;41.564;23.296;2022-09-09T03:52:14;97803.31;;;20.44;92.35
21869;BME280;11099;41.564;23.296;2022-09-09T03:54:40;97823.56;;;20.08;96.81
21869;BME280;11099;41.564;23.296;2022-09-09T03:57:11;97808.66;;;20.41;94.30
21869;BME280;11099;41.564;23.296;2022-09-09T03:59:37;97778.63;;;20.23;93.62
21869;BME280;11099;41.564;23.296;2022-09-09T04:02:03;97830.63;;;20.62;94.56
21869;BME280;11099;41.564;23.296;2022-09-09T04:04:29;97743.00;;;19.91;93.86
21869;BME280;11099;41.564;23.296;2022-09-09T04:06:55;97782.06;;;19.55;97.08
21869;BME280;11099;41.564;23.296;2022-09-09T04:09:20;97781.97;;;19.90;100.00
21869;BME280;11099;41.564;23.296;2022-09-09T04:11:46;97840.78;;;20.69;100.00
21869;BME280;11099;41.564;23.296;2022-09-09T04:14:12;97809.19;;;20.76;97.96
21869;BME280;11099;41.564;23.296;2022-09-09T04:16:38;97695.38;;;20.06;97.78
21869;BME280;11099;41.564;23.296;2022-09-09T04:19:04;97837.78;;;21.04;97.36
21869;BME280;11099;41.564;23.296;2022-09-09T04:21:32;97788.28;;;20.47;99.32
21869;BME280;11099;41.564;23.296;2022-09-09T04:23:57;97743.84;;;19.53;100.00
21869;BME280;11099;41.564;23.296;2022-09-09T04:26:23;97794.03;;;19.96;100.00
21869;BME280;11099;41.564;23.296;2022-09-09T04:28:49;97685.03;;;19.19;100.00
21869;BME280;11099;41.564;23.296;2022-09-09T04:31:24;97841.16;;;20.21;100.00
21869;BME280;11099;41.564;23.296;2022-09-09T04:33:50;97748.84;;;20.19;100.00
21869;BME280;11099;41.564;23.296;2022-09-09T04:36:16;97846.34;;;21.06;100.00
21869;BME280;11099;41.564;23.296;2022-09-09T04:38:42;97808.28;;;20.95;100.00
21869;BME280;11099;41.564;23.296;2022-09-09T04:41:09;97843.88;;;21.57;99.71
21869;BME280;11099;41.564;23.296;2022-09-09T04:43:37;97830.97;;;21.81;95.54
21869;BME280;11099;41.564;23.296;2022-09-09T04:46:03;97842.34;;;22.34;85.40
21869;BME280;11099;41.564;23.296;2022-09-09T04:48:28;97713.47;;;21.55;83.93
21869;BME280;11099;41.564;23.296;2022-09-09T04:51:02;97838.13;;;22.96;81.49
21869;BME280;11099;41.564;23.296;2022-09-09T04:53:30;97812.31;;;23.27;79.69
21869;BME280;11099;41.564;23.296;2022-09-09T04:56:11;97841.66;;;23.90;77.24
21869;BME280;11099;41.564;23.296;2022-09-09T04:58:37;97789.59;;;23.92;75.22
21869;BME280;11099;41.564;23.296;2022-09-09T05:01:10;97810.06;;;23.54;77.08
21869;BME280;11099;41.564;23.296;2022-09-09T05:03:36;97831.59;;;24.37;74.73
21869;BME280;11099;41.564;23.296;2022-09-09T05:06:19;97813.66;;;24.90;72.40
21869;BME280;11099;41.564;23.296;2022-09-09T05:08:46;97838.16;;;24.72;72.25
21869;BME280;11099;41.564;23.296;2022-09-09T05:11:26;97852.53;;;24.83;71.63
21869;BME280;11099;41.564;23.296;2022-09-09T05:13:53;97803.59;;;24.26;72.27
21869;BME280;11099;41.564;23.296;2022-09-09T05:16:19;97844.03;;;24.74;71.77
21869;BME280;11099;41.564;23.296;2022-09-09T05:18:45;97766.25;;;23.66;72.48
21869;BME280;11099;41.564;23.296;2022-09-09T05:21:12;97831.94;;;24.32;72.33
21869;BME280;11099;41.564;23.296;2022-09-09T05:23:38;97724.19;;;23.10;74.54
21869;BME280;11099;41.564;23.296;2022-09-09T05:26:04;97794.91;;;23.42;75.89
21869;BME280;11099;41.564;23.296;2022-09-09T05:28:30;97828.41;;;23.89;74.81
21869;BME280;11099;41.564;23.296;2022-09-09T05:30:57;97841.66;;;24.08;74.57
21869;BME280;11099;41.564;23.296;2022-09-09T05:33:24;97785.28;;;24.69;70.34
21869;BME280;11099;41.564;23.296;2022-09-09T05:36:03;97751.34;;;24.99;67.67
21869;BME280;11099;41.564;23.296;2022-09-09T05:38:30;97805.66;;;25.49;67.49
21869;BME280;11099;41.564;23.296;2022-09-09T05:40:56;97824.63;;;25.78;67.46
21869;BME280;11099;41.564;23.296;2022-09-09T05:43:23;97764.19;;;24.98;69.82
21869;BME280;11099;41.564;23.296;2022-09-09T05:45:59;97756.19;;;24.24;72.95
21869;BME280;11099;41.564;23.296;2022-09-09T05:48:28;97811.00;;;24.47;72.36
21869;BME280;11099;41.564;23.296;2022-09-09T05:50:54;97794.28;;;24.38;72.28
21869;BME280;11099;41.564;23.296;2022-09-09T05:53:20;97740.22;;;24.33;72.04
21869;BME280;11099;41.564;23.296;2022-09-09T05:55:45;97817.88;;;24.98;70.15
21869;BME280;11099;41.564;23.296;2022-09-09T05:58:11;97803.94;;;24.89;69.77
21869;BME280;11099;41.564;23.296;2022-09-09T06:00:37;97850.19;;;24.92;69.42
21869;BME280;11099;41.564;23.296;2022-09-09T06:03:03;97809.00;;;24.80;69.53
21869;BME280;11099;41.564;23.296;2022-09-09T06:05:29;97806.25;;;24.83;70.18
21869;BME280;11099;41.564;23.296;2022-09-09T06:07:55;97813.28;;;24.66;72.07
21869;BME280;11099;41.564;23.296;2022-09-09T06:10:21;97775.25;;;24.41;72.37
21869;BME280;11099;41.564;23.296;2022-09-09T06:12:47;97794.19;;;24.95;71.61
21869;BME280;11099;41.564;23.296;2022-09-09T06:15:12;97758.28;;;25.25;69.55
21869;BME280;11099;41.564;23.296;2022-09-09T06:17:38;97737.84;;;24.74;71.95
21869;BME280;11099;41.564;23.296;2022-09-09T06:20:04;97757.09;;;25.92;68.24
21869;BME280;11099;41.564;23.296;2022-09-09T06:22:30;97858.66;;;27.11;65.70
21869;BME280;11099;41.564;23.296;2022-09-09T06:24:56;97853.63;;;27.02;66.15
21869;BME280;11099;41.564;23.296;2022-09-09T06:27:21;97854.06;;;27.35;65.33
21869;BME280;11099;41.564;23.296;2022-09-09T06:29:47;97786.31;;;25.99;66.65
21869;BME280;11099;41.564;23.296;2022-09-09T06:32:13;97854.97;;;26.42;68.83
21869;BME280;11099;41.564;23.296;2022-09-09T06:34:38;97846.56;;;27.09;64.22
21869;BME280;11099;41.564;23.296;2022-09-09T06:37:05;97817.47;;;26.50;66.12
21869;BME280;11099;41.564;23.296;2022-09-09T06:39:32;97803.56;;;26.34;66.90
21869;BME280;11099;41.564;23.296;2022-09-09T06:41:57;97854.00;;;27.04;65.72
21869;BME280;11099;41.564;23.296;2022-09-09T06:44:24;97844.53;;;27.47;63.13
21869;BME280;11099;41.564;23.296;2022-09-09T06:46:52;97803.75;;;26.57;65.42
21869;BME280;11099;41.564;23.296;2022-09-09T06:49:17;97756.13;;;26.62;65.97
21869;BME280;11099;41.564;23.296;2022-09-09T06:51:43;97796.75;;;26.94;65.83
21869;BME280;11099;41.564;23.296;2022-09-09T06:54:09;97829.88;;;26.96;66.39
21869;BME280;11099;41.564;23.296;2022-09-09T06:56:37;97835.34;;;26.58;66.82
21869;BME280;11099;41.564;23.296;2022-09-09T06:59:06;97842.13;;;26.80;66.39
21869;BME280;11099;41.564;23.296;2022-09-09T07:01:38;97841.81;;;27.16;66.06
21869;BME280;11099;41.564;23.296;2022-09-09T07:04:09;97844.97;;;27.11;66.21
21869;BME280;11099;41.564;23.296;2022-09-09T07:06:39;97836.06;;;27.03;66.96
21869;BME280;11099;41.564;23.296;2022-09-09T07:09:07;97843.38;;;26.24;70.01
21869;BME280;11099;41.564;23.296;2022-09-09T07:11:44;97787.09;;;26.41;68.20
21869;BME280;11099;41.564;23.296;2022-09-09T07:14:11;97833.59;;;27.16;66.66
21869;BME280;11099;41.564;23.296;2022-09-09T07:16:40;97846.06;;;27.21;65.46
21869;BME280;11099;41.564;23.296;2022-09-09T07:19:07;97769.88;;;26.51;67.42
21869;BME280;11099;41.564;23.296;2022-09-09T07:21:33;97793.19;;;26.59;67.47
21869;BME280;11099;41.564;23.296;2022-09-09T07:23:58;97855.50;;;27.13;66.49
21869;BME280;11099;41.564;23.296;2022-09-09T07:26:28;97741.50;;;26.41;66.11
21869;BME280;11099;41.564;23.296;2022-09-09T07:28:54;97836.91;;;26.97;66.19
21869;BME280;11099;41.564;23.296;2022-09-09T07:31:24;97848.13;;;27.10;66.36
21869;BME280;11099;41.564;23.296;2022-09-09T07:33:50;97832.06;;;27.46;63.73
21869;BME280;11099;41.564;23.296;2022-09-09T07:36:21;97828.41;;;27.56;63.91
21869;BME280;11099;41.564;23.296;2022-09-09T07:38:52;97772.16;;;27.28;61.57
21869;BME280;11099;41.564;23.296;2022-09-09T07:41:21;97834.22;;;27.62;62.36
21869;BME280;11099;41.564;23.296;2022-09-09T07:43:49;97840.69;;;27.44;61.98
21869;BME280;11099;41.564;23.296;2022-09-09T07:46:17;97842.75;;;27.37;61.80
21869;BME280;11099;41.564;23.296;2022-09-09T07:48:49;97833.25;;;27.14;63.15
21869;BME280;11099;41.564;23.296;2022-09-09T07:51:20;97833.06;;;26.91;64.84
21869;BME280;11099;41.564;23.296;2022-09-09T07:53:48;97775.50;;;26.33;63.38
21869;BME280;11099;41.564;23.296;2022-09-09T07:56:17;97786.38;;;26.78;63.21
21869;BME280;11099;41.564;23.296;2022-09-09T07:58:45;97847.22;;;27.54;62.01
21869;BME280;11099;41.564;23.296;2022-09-09T08:01:17;97800.38;;;26.42;63.21
21869;BME280;11099;41.564;23.296;2022-09-09T08:03:44;97759.75;;;26.48;63.18
21869;BME280;11099;41.564;23.296;2022-09-09T08:06:10;97832.16;;;27.39;61.27
21869;BME280;11099;41.564;23.296;2022-09-09T08:08:38;97836.06;;;27.03;63.69
21869;BME280;11099;41.564;23.296;2022-09-09T08:11:12;97848.94;;;27.75;61.38
21869;BME280;11099;41.564;23.296;2022-09-09T08:13:39;97838.00;;;27.41;62.82
21869;BME280;11099;41.564;23.296;2022-09-09T08:18:38;97791.94;;;27.97;58.92
21869;BME280;11099;41.564;23.296;2022-09-09T08:21:09;97848.44;;;28.34;58.02
21869;BME280;11099;41.564;23.296;2022-09-09T08:23:38;97836.06;;;28.73;58.10
21869;BME280;11099;41.564;23.296;2022-09-09T08:26:06;97790.91;;;27.87;59.92
21869;BME280;11099;41.564;23.296;2022-09-09T08:28:32;97819.38;;;28.17;59.25
21869;BME280;11099;41.564;23.296;2022-09-09T08:33:33;97828.00;;;27.57;62.66
21869;BME280;11099;41.564;23.296;2022-09-09T08:35:59;97833.75;;;27.70;62.47
21869;BME280;11099;41.564;23.296;2022-09-09T08:38:24;97756.38;;;27.70;61.04
21869;BME280;11099;41.564;23.296;2022-09-09T08:40:52;97840.97;;;27.84;60.91
21869;BME280;11099;41.564;23.296;2022-09-09T08:43:25;97783.47;;;28.11;60.26
21869;BME280;11099;41.564;23.296;2022-09-09T08:46:08;97831.34;;;28.97;59.23
21869;BME280;11099;41.564;23.296;2022-09-09T08:51:13;97806.91;;;28.39;60.15
21869;BME280;11099;41.564;23.296;2022-09-09T08:53:48;97806.81;;;28.46;59.87
21869;BME280;11099;41.564;23.296;2022-09-09T08:56:18;97740.13;;;27.86;58.84
21869;BME280;11099;41.564;23.296;2022-09-09T08:58:51;97811.75;;;28.28;60.10
21869;BME280;11099;41.564;23.296;2022-09-09T09:04:11;97752.06;;;27.96;57.03
21869;BME280;11099;41.564;23.296;2022-09-09T09:06:45;97814.00;;;28.37;59.23
21869;BME280;11099;41.564;23.296;2022-09-09T09:09:31;97823.06;;;28.77;60.35
21869;BME280;11099;41.564;23.296;2022-09-09T09:12:06;97823.13;;;28.73;58.38
21869;BME280;11099;41.564;23.296;2022-09-09T09:14:35;97771.44;;;28.75;57.99
21869;BME280;11099;41.564;23.296;2022-09-09T09:17:07;97764.88;;;29.12;54.06
21869;BME280;11099;41.564;23.296;2022-09-09T09:19:38;97761.50;;;29.05;54.91
21869;BME280;11099;41.564;23.296;2022-09-09T09:27:14;97726.00;;;29.70;52.28
21869;BME280;11099;41.564;23.296;2022-09-09T09:29:41;97730.84;;;28.90;53.83
21869;BME280;11099;41.564;23.296;2022-09-09T09:32:13;97764.34;;;28.34;54.71
21869;BME280;11099;41.564;23.296;2022-09-09T09:34:40;97804.41;;;28.48;56.72
21869;BME280;11099;41.564;23.296;2022-09-09T09:37:15;97792.94;;;28.77;56.78
21869;BME280;11099;41.564;23.296;2022-09-09T09:39:45;97772.06;;;28.40;54.51
21869;BME280;11099;41.564;23.296;2022-09-09T09:42:16;97789.53;;;28.49;55.57
21869;BME280;11099;41.564;23.296;2022-09-09T09:44:42;97738.63;;;28.05;56.41
21869;BME280;11099;41.564;23.296;2022-09-09T09:49:36;97806.25;;;28.55;56.97
21869;BME280;11099;41.564;23.296;2022-09-09T09:52:06;97804.88;;;28.43;57.46
21869;BME280;11099;41.564;23.296;2022-09-09T09:54:37;97732.72;;;27.83;58.13
21869;BME280;11099;41.564;23.296;2022-09-09T09:57:11;97756.97;;;28.08;56.31
21869;BME280;11099;41.564;23.296;2022-09-09T09:59:38;97673.69;;;27.86;56.36
21869;BME280;11099;41.564;23.296;2022-09-09T10:04:38;97778.63;;;29.09;55.48
21869;BME280;11099;41.564;23.296;2022-09-09T10:07:19;97753.69;;;29.03;53.06
21869;BME280;11099;41.564;23.296;2022-09-09T10:09:52;97775.84;;;29.12;54.40
21869;BME280;11099;41.564;23.296;2022-09-09T10:18:36;97719.09;;;29.09;53.47
21869;BME280;11099;41.564;23.296;2022-09-09T10:32:01;97740.78;;;29.40;54.39
21869;BME280;11099;41.564;23.296;2022-09-09T10:34:56;97748.16;;;29.43;54.36
21869;BME280;11099;41.564;23.296;2022-09-09T10:37:36;97748.97;;;29.24;53.72
21869;BME280;11099;41.564;23.296;2022-09-09T10:42:36;97709.97;;;28.37;55.80
21869;BME280;11099;41.564;23.296;2022-09-09T10:50:50;97743.28;;;29.14;55.41
21869;BME280;11099;41.564;23.296;2022-09-09T10:55:59;97737.72;;;28.78;55.14
21869;BME280;11099;41.564;23.296;2022-09-09T10:58:42;97744.66;;;28.83;56.45
21869;BME280;11099;41.564;23.296;2022-09-09T11:01:15;97636.13;;;28.29;56.22
21869;BME280;11099;41.564;23.296;2022-09-09T11:03:43;97682.72;;;28.69;55.54
21869;BME280;11099;41.564;23.296;2022-09-09T11:06:17;97636.28;;;28.82;56.01
21869;BME280;11099;41.564;23.296;2022-09-09T11:08:45;97619.34;;;29.23;53.44
21869;BME280;11099;41.564;23.296;2022-09-09T11:11:15;97640.09;;;29.40;53.24
21869;BME280;11099;41.564;23.296;2022-09-09T11:14:11;97664.25;;;29.46;53.19
21869;BME280;11099;41.564;23.296;2022-09-09T11:16:48;97644.56;;;29.83;51.89
21869;BME280;11099;41.564;23.296;2022-09-09T11:19:42;97702.44;;;29.89;52.41
21869;BME280;11099;41.564;23.296;2022-09-09T11:22:33;97710.50;;;29.63;54.43
21869;BME280;11099;41.564;23.296;2022-09-09T11:25:06;97713.28;;;30.09;53.02
21869;BME280;11099;41.564;23.296;2022-09-09T11:41:08;97673.16;;;30.15;53.00
21869;BME280;11099;41.564;23.296;2022-09-09T11:43:46;97672.66;;;29.71;53.79
21869;BME280;11099;41.564;23.296;2022-09-09T11:46:14;97693.16;;;29.66;54.73
21869;BME280;11099;41.564;23.296;2022-09-09T11:48:57;97708.84;;;29.82;54.58
21869;BME280;11099;41.564;23.296;2022-09-09T11:51:27;97691.63;;;29.82;53.34
21869;BME280;11099;41.564;23.296;2022-09-09T11:54:02;97669.69;;;30.27;52.65
21869;BME280;11099;41.564;23.296;2022-09-09T11:56:44;97680.03;;;30.65;51.48
21869;BME280;11099;41.564;23.296;2022-09-09T12:01:54;97603.22;;;29.74;52.70
21869;BME280;11099;41.564;23.296;2022-09-09T12:06:57;97666.63;;;30.09;54.22
21869;BME280;11099;41.564;23.296;2022-09-09T12:09:46;97673.41;;;30.21;54.24
21869;BME280;11099;41.564;23.296;2022-09-09T12:17:26;97615.06;;;29.71;51.54
21869;BME280;11099;41.564;23.296;2022-09-09T12:33:38;97592.59;;;30.76;50.93
21869;BME280;11099;41.564;23.296;2022-09-09T12:36:12;97595.81;;;31.00;49.47
21869;BME280;11099;41.564;23.296;2022-09-09T12:38:41;97564.13;;;30.70;50.29
21869;BME280;11099;41.564;23.296;2022-09-09T12:41:19;97625.66;;;31.27;48.93
21869;BME280;11099;41.564;23.296;2022-09-09T12:43:45;97646.38;;;30.90;48.79
21869;BME280;11099;41.564;23.296;2022-09-09T12:46:20;97626.22;;;30.67;50.40
21869;BME280;11099;41.564;23.296;2022-09-09T12:48:47;97623.56;;;30.64;51.53
21869;BME280;11099;41.564;23.296;2022-09-09T12:53:51;97461.63;;;29.64;49.87
21869;BME280;11099;41.564;23.296;2022-09-09T12:56:26;97509.91;;;29.61;51.94
21869;BME280;11099;41.564;23.296;2022-09-09T12:58:53;97537.19;;;29.81;50.33
21869;BME280;11099;41.564;23.296;2022-09-09T13:01:31;97556.22;;;29.72;51.17
21869;BME280;11099;41.564;23.296;2022-09-09T13:03:58;97605.47;;;30.08;50.71
21869;BME280;11099;41.564;23.296;2022-09-09T13:06:28;97557.31;;;29.62;52.15
21869;BME280;11099;41.564;23.296;2022-09-09T13:08:56;97609.47;;;29.91;52.00
21869;BME280;11099;41.564;23.296;2022-09-09T13:11:34;97544.50;;;29.39;52.37
21869;BME280;11099;41.564;23.296;2022-09-09T13:14:01;97530.56;;;29.33;53.12
21869;BME280;11099;41.564;23.296;2022-09-09T13:16:33;97554.97;;;29.44;53.66
21869;BME280;11099;41.564;23.296;2022-09-09T13:19:01;97550.97;;;29.00;52.40
21869;BME280;11099;41.564;23.296;2022-09-09T13:21:38;97560.38;;;29.31;53.21
21869;BME280;11099;41.564;23.296;2022-09-09T13:24:32;97471.88;;;28.49;54.45
21869;BME280;11099;41.564;23.296;2022-09-09T13:27:02;97568.47;;;28.86;54.76
21869;BME280;11099;41.564;23.296;2022-09-09T13:29:30;97514.69;;;28.59;55.15
21869;BME280;11099;41.564;23.296;2022-09-09T13:32:12;97623.69;;;29.21;55.49
21869;BME280;11099;41.564;23.296;2022-09-09T13:34:55;97555.97;;;28.85;55.79
21869;BME280;11099;41.564;23.296;2022-09-09T13:37:38;97553.25;;;28.85;56.07
21869;BME280;11099;41.564;23.296;2022-09-09T13:40:05;97585.13;;;28.95;56.75
21869;BME280;11099;41.564;23.296;2022-09-09T13:42:33;97582.75;;;28.77;57.48
21869;BME280;11099;41.564;23.296;2022-09-09T13:45:01;97571.88;;;28.74;58.51
21869;BME280;11099;41.564;23.296;2022-09-09T13:47:34;97635.41;;;29.05;58.08
21869;BME280;11099;41.564;23.296;2022-09-09T13:52:45;97530.53;;;28.68;56.26
21869;BME280;11099;41.564;23.296;2022-09-09T13:55:11;97592.19;;;29.29;56.79
21869;BME280;11099;41.564;23.296;2022-09-09T13:57:36;97587.97;;;29.24;56.19
21869;BME280;11099;41.564;23.296;2022-09-09T14:00:03;97611.63;;;29.34;57.34
21869;BME280;11099;41.564;23.296;2022-09-09T14:02:28;97608.03;;;29.21;57.09
21869;BME280;11099;41.564;23.296;2022-09-09T14:04:55;97607.34;;;29.33;55.74
21869;BME280;11099;41.564;23.296;2022-09-09T14:07:21;97611.72;;;29.31;55.52
21869;BME280;11099;41.564;23.296;2022-09-09T14:09:46;97589.84;;;29.11;55.58
21869;BME280;11099;41.564;23.296;2022-09-09T14:12:15;97555.16;;;29.04;55.17
21869;BME280;11099;41.564;23.296;2022-09-09T14:14:41;97562.34;;;29.31;55.26
21869;BME280;11099;41.564;23.296;2022-09-09T14:17:08;97601.97;;;29.62;55.82
21869;BME280;11099;41.564;23.296;2022-09-09T14:19:34;97557.91;;;29.21;55.34
21869;BME280;11099;41.564;23.296;2022-09-09T14:21:59;97520.41;;;29.01;56.23
21869;BME280;11099;41.564;23.296;2022-09-09T14:24:25;97514.56;;;29.16;53.93
21869;BME280;11099;41.564;23.296;2022-09-09T14:26:51;97487.66;;;28.94;54.57
21869;BME280;11099;41.564;23.296;2022-09-09T14:29:17;97560.44;;;29.44;56.01
21869;BME280;11099;41.564;23.296;2022-09-09T14:31:42;97598.88;;;29.60;55.80
21869;BME280;11099;41.564;23.296;2022-09-09T14:34:08;97518.59;;;29.11;56.44
21869;BME280;11099;41.564;23.296;2022-09-09T14:36:37;97530.06;;;29.22;56.83
21869;BME280;11099;41.564;23.296;2022-09-09T14:39:03;97564.06;;;29.41;56.83
21869;BME280;11099;41.564;23.296;2022-09-09T14:41:29;97567.16;;;29.59;55.31
21869;BME280;11099;41.564;23.296;2022-09-09T14:43:55;97571.34;;;29.64;55.63
21869;BME280;11099;41.564;23.296;2022-09-09T14:46:21;97601.69;;;29.40;56.74
21869;BME280;11099;41.564;23.296;2022-09-09T14:48:47;97505.81;;;28.35;57.17
21869;BME280;11099;41.564;23.296;2022-09-09T14:51:19;97606.41;;;29.07;57.44
21869;BME280;11099;41.564;23.296;2022-09-09T14:53:45;97517.59;;;28.52;58.00
21869;BME280;11099;41.564;23.296;2022-09-09T14:56:16;97579.56;;;29.15;57.74
21869;BME280;11099;41.564;23.296;2022-09-09T14:58:42;97531.06;;;28.79;57.41
21869;BME280;11099;41.564;23.296;2022-09-09T15:01:11;97575.03;;;29.08;58.01
21869;BME280;11099;41.564;23.296;2022-09-09T15:03:41;97565.38;;;28.84;59.11
21869;BME280;11099;41.564;23.296;2022-09-09T15:06:13;97565.75;;;28.86;58.21
21869;BME280;11099;41.564;23.296;2022-09-09T15:08:41;97468.88;;;28.24;57.79
21869;BME280;11099;41.564;23.296;2022-09-09T15:11:07;97443.09;;;28.05;56.61
21869;BME280;11099;41.564;23.296;2022-09-09T15:13:34;97509.72;;;28.34;57.35
21869;BME280;11099;41.564;23.296;2022-09-09T15:16:07;97558.88;;;28.78;57.94
21869;BME280;11099;41.564;23.296;2022-09-09T15:18:34;97535.78;;;28.43;57.68
21869;BME280;11099;41.564;23.296;2022-09-09T15:21:04;97553.44;;;28.58;58.69
21869;BME280;11099;41.564;23.296;2022-09-09T15:23:34;97494.25;;;28.08;58.43
21869;BME280;11099;41.564;23.296;2022-09-09T15:26:00;97494.78;;;28.19;58.54